createdAt,value
2018-05-12T00:00:12.163Z,12.50
2018-05-12T00:02:39.881Z,12.50
2018-05-12T00:05:07.772Z,12.50
2018-05-12T00:07:35.411Z,12.60
2018-05-12T00:10:02.992Z,12.50
2018-05-12T00:12:30.784Z,12.50
2018-05-12T00:14:58.589Z,12.50
2018-05-12T00:17:26.355Z,12.60
2018-05-12T00:19:54.010Z,12.60
2018-05-12T00:22:21.620Z,12.70
2018-05-12T00:24:49.169Z,12.70
2018-05-12T00:27:17.080Z,12.70
2018-05-12T00:29:44.837Z,12.70
2018-05-12T00:32:12.568Z,12.70
2018-05-12T00:34:40.313Z,12.70
2018-05-12T00:37:07.984Z,12.70
2018-05-12T00:39:35.597Z,12.70
2018-05-12T00:42:03.193Z,12.70
2018-05-12T00:44:30.833Z,12.60
2018-05-12T00:46:58.421Z,12.50
2018-05-12T00:49:26.296Z,12.40
2018-05-12T00:51:54.041Z,12.40
2018-05-12T00:54:22.024Z,12.40
2018-05-12T00:56:49.641Z,12.50
2018-05-12T00:59:17.229Z,12.50
2018-05-12T01:01:44.882Z,12.50
2018-05-12T01:04:12.489Z,12.40
2018-05-12T01:06:40.809Z,12.30
2018-05-12T01:09:08.693Z,12.30
2018-05-12T01:11:36.297Z,12.30
2018-05-12T01:14:04.632Z,12.30
2018-05-12T01:16:32.218Z,12.30
2018-05-12T01:19:00.937Z,12.40
2018-05-12T01:21:28.526Z,12.30
2018-05-12T01:23:56.240Z,12.30
2018-05-12T01:26:24.766Z,12.30
2018-05-12T01:28:52.440Z,12.30
2018-05-12T01:31:20.130Z,12.10
2018-05-12T01:33:48.604Z,12.20
2018-05-12T01:36:16.326Z,12.10
2018-05-12T01:38:44.088Z,12.20
2018-05-12T01:41:11.846Z,12.20
2018-05-12T01:43:39.480Z,12.20
2018-05-12T01:46:08.198Z,12.20
2018-05-12T01:48:35.996Z,12.30
2018-05-12T01:51:03.666Z,12.20
2018-05-12T01:53:32.133Z,12.20
2018-05-12T01:56:00.109Z,12.20
2018-05-12T01:58:27.957Z,12.30
2018-05-12T02:00:55.532Z,12.20
2018-05-12T02:03:23.340Z,12.20
2018-05-12T02:05:50.892Z,12.10
2018-05-12T02:08:18.481Z,12.00
2018-05-12T02:10:46.080Z,12.10
2018-05-12T02:13:13.795Z,12.20
2018-05-12T02:15:41.462Z,12.20
2018-05-12T02:18:09.156Z,12.10
2018-05-12T02:20:36.860Z,12.10
2018-05-12T02:23:04.744Z,12.10
2018-05-12T02:25:32.452Z,12.10
2018-05-12T02:28:00.201Z,12.20
2018-05-12T02:30:28.143Z,12.20
2018-05-12T02:32:55.817Z,12.20
2018-05-12T02:35:23.629Z,12.30
2018-05-12T02:37:52.257Z,12.40
2018-05-12T02:40:20.050Z,12.30
2018-05-12T02:42:47.639Z,12.40
2018-05-12T02:45:16.177Z,12.20
2018-05-12T02:47:43.779Z,12.20
2018-05-12T02:50:11.504Z,12.20
2018-05-12T02:52:39.099Z,12.10
2018-05-12T02:55:07.494Z,12.20
2018-05-12T02:57:35.509Z,12.10
2018-05-12T03:00:03.265Z,12.20
2018-05-12T03:02:31.275Z,12.10
2018-05-12T03:04:59.604Z,12.10
2018-05-12T03:07:27.348Z,12.00
2018-05-12T03:09:55.220Z,12.10
2018-05-12T03:12:22.792Z,12.10
2018-05-12T03:14:50.462Z,12.10
2018-05-12T03:17:18.174Z,12.10
2018-05-12T03:19:46.860Z,12.10
2018-05-12T03:22:15.302Z,12.10
2018-05-12T03:24:43.837Z,12.10
2018-05-12T03:27:11.418Z,12.10
2018-05-12T03:29:38.997Z,12.20
2018-05-12T03:32:06.894Z,12.20
2018-05-12T03:34:35.545Z,12.20
2018-05-12T03:37:03.432Z,12.20
2018-05-12T03:39:31.037Z,12.20
2018-05-12T03:41:58.945Z,12.20
2018-05-12T03:44:26.540Z,12.30
2018-05-12T03:46:55.040Z,12.10
2018-05-12T03:49:22.712Z,12.10
2018-05-12T03:51:50.277Z,12.00
2018-05-12T03:54:18.041Z,12.00
2018-05-12T03:56:45.762Z,12.10
2018-05-12T03:59:14.493Z,12.30
2018-05-12T04:01:42.279Z,12.20
2018-05-12T04:04:21.804Z,12.30
2018-05-12T04:07:01.248Z,12.30
2018-05-12T04:09:40.677Z,12.30
2018-05-12T04:12:20.179Z,12.30
2018-05-12T04:14:47.741Z,12.30
2018-05-12T04:17:15.421Z,12.40
2018-05-12T04:19:43.369Z,12.50
2018-05-12T04:22:11.053Z,12.50
2018-05-12T04:24:38.625Z,12.50
2018-05-12T04:27:06.320Z,12.50
2018-05-12T04:29:34.132Z,12.40
2018-05-12T04:32:01.865Z,12.30
2018-05-12T04:34:30.493Z,12.50
2018-05-12T04:36:58.159Z,12.50
2018-05-12T04:39:25.831Z,12.60
2018-05-12T04:41:53.478Z,12.70
2018-05-12T04:44:21.224Z,12.70
2018-05-12T04:46:49.177Z,12.80
2018-05-12T04:49:16.781Z,12.80
2018-05-12T04:51:44.559Z,12.80
2018-05-12T04:54:12.242Z,12.70
2018-05-12T04:56:40.961Z,12.70
2018-05-12T04:59:08.784Z,12.70
2018-05-12T05:01:36.598Z,12.70
2018-05-12T05:04:04.189Z,12.80
2018-05-12T05:06:31.933Z,13.00
2018-05-12T05:08:59.580Z,13.10
2018-05-12T05:11:27.497Z,13.10
2018-05-12T05:13:55.961Z,13.10
2018-05-12T05:16:23.690Z,13.00
2018-05-12T05:18:51.431Z,13.10
2018-05-12T05:21:19.153Z,13.20
2018-05-12T05:23:47.431Z,13.20
2018-05-12T05:26:15.245Z,13.20
2018-05-12T05:28:42.806Z,13.30
2018-05-12T05:31:10.470Z,13.20
2018-05-12T05:33:38.141Z,13.30
2018-05-12T05:36:06.637Z,13.50
2018-05-12T05:38:34.261Z,13.50
2018-05-12T05:41:01.995Z,13.50
2018-05-12T05:43:29.700Z,13.60
2018-05-12T05:45:57.457Z,13.60
2018-05-12T05:48:25.184Z,13.60
2018-05-12T05:50:52.888Z,13.70
2018-05-12T05:53:20.449Z,13.80
2018-05-12T05:55:48.343Z,13.70
2018-05-12T05:58:16.118Z,13.80
2018-05-12T06:00:43.810Z,13.80
2018-05-12T06:03:12.271Z,14.10
2018-05-12T06:05:39.849Z,14.10
2018-05-12T06:08:08.192Z,14.20
2018-05-12T06:10:35.817Z,14.20
2018-05-12T06:13:03.385Z,14.30
2018-05-12T06:15:31.039Z,14.40
2018-05-12T06:17:58.662Z,14.20
2018-05-12T06:20:27.192Z,14.30
2018-05-12T06:22:54.843Z,14.30
2018-05-12T06:25:22.556Z,14.20
2018-05-12T06:27:50.167Z,14.50
2018-05-12T06:30:18.052Z,14.70
2018-05-12T06:32:45.703Z,14.70
2018-05-12T06:35:14.090Z,14.80
2018-05-12T06:37:41.761Z,14.80
2018-05-12T06:40:10.273Z,15.10
2018-05-12T06:42:38.618Z,15.30
2018-05-12T06:45:06.315Z,15.30
2018-05-12T06:47:34.815Z,15.90
2018-05-12T06:50:02.768Z,15.90
2018-05-12T06:52:31.112Z,16.10
2018-05-12T06:54:58.713Z,16.10
2018-05-12T06:57:27.133Z,16.50
2018-05-12T06:59:54.722Z,16.50
2018-05-12T07:02:22.328Z,16.40
2018-05-12T07:04:50.192Z,16.60
2018-05-12T07:07:17.770Z,16.70
2018-05-12T07:09:45.552Z,16.80
2018-05-12T07:12:13.134Z,17.00
2018-05-12T07:14:40.759Z,16.80
2018-05-12T07:17:08.501Z,17.10
2018-05-12T07:19:36.233Z,17.30
2018-05-12T07:22:04.556Z,17.20
2018-05-12T07:24:32.282Z,17.10
2018-05-12T07:27:00.757Z,17.20
2018-05-12T07:29:29.173Z,17.40
2018-05-12T07:31:56.786Z,17.30
2018-05-12T07:34:25.422Z,17.70
2018-05-12T07:36:53.174Z,17.70
2018-05-12T07:39:20.779Z,18.00
2018-05-12T07:41:48.343Z,17.80
2018-05-12T07:44:15.928Z,17.90
2018-05-12T07:46:44.418Z,18.40
2018-05-12T07:49:12.283Z,18.40
2018-05-12T07:51:39.872Z,18.70
2018-05-12T07:54:07.488Z,19.00
2018-05-12T07:56:35.871Z,19.40
2018-05-12T07:59:04.192Z,19.90
2018-05-12T08:01:31.818Z,19.90
2018-05-12T08:03:59.398Z,20.40
2018-05-12T08:06:27.162Z,20.80
2018-05-12T08:08:54.871Z,20.90
2018-05-12T08:11:22.673Z,20.80
2018-05-12T08:13:50.547Z,20.60
2018-05-12T08:16:18.144Z,20.60
2018-05-12T08:18:46.837Z,21.10
2018-05-12T08:21:14.424Z,21.10
2018-05-12T08:23:42.788Z,21.20
2018-05-12T08:26:10.567Z,21.20
2018-05-12T08:28:38.252Z,21.50
2018-05-12T08:31:06.019Z,21.60
2018-05-12T08:33:33.778Z,21.90
2018-05-12T08:36:01.391Z,22.00
2018-05-12T08:38:29.072Z,22.00
2018-05-12T08:40:57.438Z,22.30
2018-05-12T08:43:25.383Z,22.30
2018-05-12T08:45:53.140Z,22.40
2018-05-12T08:48:20.906Z,22.50
2018-05-12T08:50:48.639Z,23.30
2018-05-12T08:53:16.234Z,22.90
2018-05-12T08:55:44.148Z,22.30
2018-05-12T08:58:11.746Z,21.40
2018-05-12T09:00:39.605Z,21.10
2018-05-12T09:03:07.168Z,21.40
2018-05-12T09:05:34.895Z,21.20
2018-05-12T09:08:02.724Z,21.20
2018-05-12T09:10:32.072Z,21.10
2018-05-12T09:12:59.858Z,21.20
2018-05-12T09:15:27.468Z,20.80
2018-05-12T09:17:56.121Z,20.90
2018-05-12T09:20:23.816Z,20.80
2018-05-12T09:22:52.334Z,21.10
2018-05-12T09:25:20.286Z,21.10
2018-05-12T09:27:48.097Z,21.60
2018-05-12T09:30:16.000Z,21.60
2018-05-12T09:32:44.425Z,21.20
2018-05-12T09:35:12.386Z,21.20
2018-05-12T09:37:39.996Z,20.90
2018-05-12T09:40:07.696Z,21.00
2018-05-12T09:42:35.329Z,21.60
2018-05-12T09:45:03.348Z,21.50
2018-05-12T09:47:31.208Z,22.60
2018-05-12T09:49:58.890Z,22.60
2018-05-12T09:52:26.783Z,22.60
2018-05-12T09:54:54.487Z,23.10
2018-05-12T09:57:22.370Z,23.10
2018-05-12T09:59:49.977Z,22.80
2018-05-12T10:02:18.301Z,22.70
2018-05-12T10:04:46.066Z,22.70
2018-05-12T10:07:13.850Z,22.70
2018-05-12T10:09:41.718Z,22.80
2018-05-12T10:12:09.436Z,23.30
2018-05-12T10:14:37.298Z,23.20
2018-05-12T10:17:05.332Z,23.70
2018-05-12T10:19:33.047Z,23.30
2018-05-12T10:22:01.081Z,23.90
2018-05-12T10:24:29.493Z,23.50
2018-05-12T10:26:57.357Z,23.50
2018-05-12T10:29:25.264Z,23.70
2018-05-12T10:31:53.795Z,22.50
2018-05-12T10:34:21.358Z,22.40
2018-05-12T10:36:49.225Z,22.00
2018-05-12T10:39:16.805Z,22.00
2018-05-12T10:41:44.367Z,23.20
2018-05-12T10:44:12.368Z,23.90
2018-05-12T10:46:39.943Z,24.60
2018-05-12T10:49:08.401Z,24.80
2018-05-12T10:51:36.151Z,24.80
2018-05-12T10:54:03.724Z,24.90
2018-05-12T10:56:31.415Z,24.70
2018-05-12T10:58:59.971Z,24.80
2018-05-12T11:01:27.710Z,24.80
2018-05-12T11:03:55.365Z,23.60
2018-05-12T11:06:23.306Z,23.00
2018-05-12T11:08:50.893Z,22.50
2018-05-12T11:11:18.650Z,22.40
2018-05-12T11:13:46.565Z,23.40
2018-05-12T11:16:14.234Z,24.30
2018-05-12T11:18:41.817Z,24.40
2018-05-12T11:21:09.416Z,24.60
2018-05-12T11:23:37.243Z,25.20
2018-05-12T11:26:04.809Z,24.60
2018-05-12T11:28:32.403Z,24.70
2018-05-12T11:31:00.075Z,24.90
2018-05-12T11:33:27.749Z,24.70
2018-05-12T11:35:55.707Z,25.30
2018-05-12T11:38:24.353Z,24.80
2018-05-12T11:40:52.224Z,24.40
2018-05-12T11:43:19.978Z,24.20
2018-05-12T11:45:47.538Z,23.80
2018-05-12T11:48:15.104Z,24.00
2018-05-12T11:50:42.883Z,24.60
2018-05-12T11:53:10.677Z,24.50
2018-05-12T11:55:39.045Z,23.70
2018-05-12T11:58:06.860Z,23.70
2018-05-12T12:00:34.662Z,23.40
2018-05-12T12:03:02.239Z,23.80
2018-05-12T12:05:30.165Z,24.40
2018-05-12T12:07:57.889Z,24.90
2018-05-12T12:10:26.465Z,24.80
2018-05-12T12:12:55.204Z,24.30
2018-05-12T12:15:22.873Z,24.30
2018-05-12T12:17:50.496Z,24.50
2018-05-12T12:20:18.230Z,24.90
2018-05-12T12:22:46.577Z,24.90
2018-05-12T12:25:14.218Z,24.90
2018-05-12T12:27:42.135Z,23.70
2018-05-12T12:30:10.459Z,25.40
2018-05-12T12:32:38.101Z,25.40
2018-05-12T12:35:05.832Z,25.20
2018-05-12T12:37:34.490Z,25.50
2018-05-12T12:40:02.185Z,25.50
2018-05-12T12:42:30.693Z,24.00
2018-05-12T12:44:58.388Z,24.00
2018-05-12T12:47:27.043Z,25.70
2018-05-12T12:49:54.915Z,25.70
2018-05-12T12:52:22.896Z,26.40
2018-05-12T12:54:50.607Z,25.80
2018-05-12T12:57:19.662Z,24.90
2018-05-12T12:59:47.309Z,25.00
2018-05-12T13:02:15.031Z,25.70
2018-05-12T13:04:43.882Z,26.20
2018-05-12T13:07:12.238Z,25.40
2018-05-12T13:09:39.980Z,25.40
2018-05-12T13:12:07.602Z,24.30
2018-05-12T13:14:35.384Z,24.30
2018-05-12T13:17:03.892Z,25.90
2018-05-12T13:19:31.609Z,25.90
2018-05-12T13:21:59.493Z,25.60
2018-05-12T13:24:27.840Z,24.60
2018-05-12T13:26:55.661Z,24.60
2018-05-12T13:29:23.223Z,24.90
2018-05-12T13:31:50.986Z,24.80
2018-05-12T13:34:18.795Z,25.00
2018-05-12T13:36:46.358Z,25.20
2018-05-12T13:39:14.208Z,25.10
2018-05-12T13:41:41.990Z,25.50
2018-05-12T13:44:09.683Z,26.00
2018-05-12T13:46:37.519Z,26.00
2018-05-12T13:49:05.094Z,25.60
2018-05-12T13:51:33.822Z,25.30
2018-05-12T13:54:01.384Z,25.30
2018-05-12T13:56:29.198Z,25.20
2018-05-12T13:58:57.015Z,25.10
2018-05-12T14:01:24.654Z,24.70
2018-05-12T14:03:52.337Z,24.90
2018-05-12T14:06:20.071Z,25.10
2018-05-12T14:08:47.749Z,25.00
2018-05-12T14:11:15.570Z,25.10
2018-05-12T14:13:43.923Z,24.30
2018-05-12T14:16:12.581Z,24.30
2018-05-12T14:18:40.437Z,24.50
2018-05-12T14:21:08.297Z,24.70
2018-05-12T14:23:36.064Z,25.20
2018-05-12T14:26:03.865Z,25.30
2018-05-12T14:28:31.429Z,24.60
2018-05-12T14:30:59.058Z,24.40
2018-05-12T14:33:26.829Z,24.70
2018-05-12T14:35:54.666Z,24.90
2018-05-12T14:38:22.250Z,24.80
2018-05-12T14:40:50.117Z,24.80
2018-05-12T14:43:17.902Z,25.10
2018-05-12T14:45:45.719Z,24.60
2018-05-12T14:48:13.367Z,24.70
2018-05-12T14:50:41.697Z,24.20
2018-05-12T14:53:09.554Z,24.10
2018-05-12T14:55:37.601Z,24.20
2018-05-12T14:58:05.339Z,24.30
2018-05-12T15:00:33.696Z,24.60
2018-05-12T15:03:01.313Z,24.60
2018-05-12T15:05:28.985Z,24.20
2018-05-12T15:07:56.561Z,24.00
2018-05-12T15:10:24.184Z,24.20
2018-05-12T15:12:51.979Z,24.60
2018-05-12T15:15:19.756Z,24.50
2018-05-12T15:17:47.614Z,24.50
2018-05-12T15:20:15.309Z,24.00
2018-05-12T15:22:43.783Z,24.00
2018-05-12T15:25:11.644Z,24.00
2018-05-12T15:27:39.371Z,23.90
2018-05-12T15:30:07.022Z,23.70
2018-05-12T15:32:34.966Z,24.10
2018-05-12T15:35:02.540Z,24.20
2018-05-12T15:37:30.577Z,23.90
2018-05-12T15:39:59.126Z,24.10
2018-05-12T15:42:27.850Z,23.70
2018-05-12T15:44:55.695Z,23.70
2018-05-12T15:47:23.450Z,23.70
2018-05-12T15:49:51.254Z,23.50
2018-05-12T15:52:18.784Z,23.80
2018-05-12T15:54:46.405Z,23.50
2018-05-12T15:57:14.010Z,23.30
2018-05-12T15:59:42.505Z,23.20
2018-05-12T16:02:10.957Z,23.00
2018-05-12T16:04:38.760Z,23.00
2018-05-12T16:07:07.502Z,22.90
2018-05-12T16:09:35.207Z,22.90
2018-05-12T16:12:04.058Z,22.60
2018-05-12T16:14:31.769Z,22.20
2018-05-12T16:16:59.372Z,21.90
2018-05-12T16:19:27.492Z,21.80
2018-05-12T16:21:55.344Z,21.60
2018-05-12T16:24:23.906Z,21.40
2018-05-12T16:26:51.489Z,21.40
2018-05-12T16:29:20.027Z,20.90
2018-05-12T16:31:47.997Z,20.90
2018-05-12T16:34:15.581Z,21.00
2018-05-12T16:36:43.316Z,21.00
2018-05-12T16:39:11.210Z,20.80
2018-05-12T16:41:39.145Z,20.60
2018-05-12T16:44:06.962Z,20.50
2018-05-12T16:46:35.789Z,20.50
2018-05-12T16:49:03.447Z,20.50
2018-05-12T16:51:31.419Z,20.50
2018-05-12T16:53:59.089Z,20.30
2018-05-12T16:56:26.691Z,20.20
2018-05-12T16:58:55.046Z,20.00
2018-05-12T17:01:22.812Z,20.00
2018-05-12T17:03:50.376Z,20.00
2018-05-12T17:06:18.206Z,19.90
2018-05-12T17:08:45.988Z,19.90
2018-05-12T17:11:14.354Z,19.60
2018-05-12T17:13:41.943Z,19.60
2018-05-12T17:16:10.390Z,19.40
2018-05-12T17:18:37.973Z,19.40
2018-05-12T17:21:05.904Z,19.30
2018-05-12T17:23:33.629Z,19.30
2018-05-12T17:26:01.978Z,19.10
2018-05-12T17:28:29.564Z,19.10
2018-05-12T17:30:58.090Z,18.80
2018-05-12T17:33:25.762Z,18.80
2018-05-12T17:35:53.328Z,18.60
2018-05-12T17:38:20.950Z,18.40
2018-05-12T17:40:48.530Z,17.90
2018-05-12T17:43:16.235Z,17.80
2018-05-12T17:45:44.044Z,17.70
2018-05-12T17:48:11.635Z,17.10
2018-05-12T17:50:39.463Z,16.90
2018-05-12T17:53:07.064Z,16.60
2018-05-12T17:55:34.652Z,16.40
2018-05-12T17:58:03.269Z,15.80
2018-05-12T18:00:30.996Z,15.80
2018-05-12T18:02:59.430Z,15.80
2018-05-12T18:05:26.993Z,15.80
2018-05-12T18:07:54.595Z,15.60
2018-05-12T18:10:23.293Z,15.30
2018-05-12T18:12:51.789Z,15.30
2018-05-12T18:15:19.421Z,15.30
2018-05-12T18:17:47.769Z,14.70
2018-05-12T18:20:15.539Z,14.60
2018-05-12T18:22:44.291Z,14.50
2018-05-12T18:25:12.039Z,14.50
2018-05-12T18:27:39.610Z,14.50
2018-05-12T18:30:07.618Z,14.30
2018-05-12T18:32:35.193Z,14.40
2018-05-12T18:35:03.545Z,14.20
2018-05-12T18:37:31.498Z,14.10
2018-05-12T18:39:59.113Z,14.00
2018-05-12T18:42:27.537Z,13.90
2018-05-12T18:44:55.380Z,13.80
2018-05-12T18:47:23.070Z,13.70
2018-05-12T18:49:50.723Z,13.60
2018-05-12T18:52:18.335Z,13.70
2018-05-12T18:54:47.098Z,13.50
2018-05-12T18:57:14.711Z,13.50
2018-05-12T18:59:42.426Z,13.40
2018-05-12T19:02:10.184Z,13.40
2018-05-12T19:04:38.743Z,13.30
2018-05-12T19:07:06.368Z,13.30
2018-05-12T19:09:33.956Z,13.10
2018-05-12T19:12:01.533Z,12.90
2018-05-12T19:14:29.593Z,12.90
2018-05-12T19:16:57.244Z,12.80
2018-05-12T19:19:24.820Z,12.60
2018-05-12T19:21:52.436Z,12.50
2018-05-12T19:24:20.971Z,12.60
2018-05-12T19:26:48.748Z,12.60
2018-05-12T19:29:16.685Z,12.60
2018-05-12T19:31:44.264Z,12.40
2018-05-12T19:34:11.846Z,12.20
2018-05-12T19:36:40.213Z,12.30
2018-05-12T19:39:08.045Z,12.30
2018-05-12T19:41:35.852Z,12.20
2018-05-12T19:44:04.455Z,12.00
2018-05-12T19:46:32.934Z,11.80
2018-05-12T19:49:01.606Z,11.80
2018-05-12T19:51:30.185Z,11.90
2018-05-12T19:53:58.542Z,11.80
2018-05-12T19:56:26.435Z,11.70
2018-05-12T19:58:55.479Z,11.70
2018-05-12T20:01:23.701Z,11.70
2018-05-12T20:03:52.310Z,11.40
2018-05-12T20:06:20.005Z,11.40
2018-05-12T20:08:47.579Z,11.20
2018-05-12T20:11:15.297Z,10.80
2018-05-12T20:13:43.185Z,10.80
2018-05-12T20:16:11.104Z,10.80
2018-05-12T20:18:39.840Z,10.70
2018-05-12T20:21:07.827Z,10.70
2018-05-12T20:23:35.721Z,10.80
2018-05-12T20:26:03.777Z,10.70
2018-05-12T20:28:32.737Z,10.40
2018-05-12T20:31:00.941Z,10.40
2018-05-12T20:33:29.088Z,10.50
2018-05-12T20:35:57.121Z,10.50
2018-05-12T20:38:25.048Z,10.40
2018-05-12T20:40:53.723Z,10.30
2018-05-12T20:43:21.791Z,10.30
2018-05-12T20:45:49.360Z,10.20
2018-05-12T20:48:16.932Z,10.10
2018-05-12T20:50:44.998Z,10.00
2018-05-12T20:53:12.687Z,9.90
2018-05-12T20:55:41.378Z,9.70
2018-05-12T20:58:09.489Z,9.80
2018-05-12T21:00:37.208Z,9.80
2018-05-12T21:03:05.869Z,9.70
2018-05-12T21:05:33.494Z,9.70
2018-05-12T21:08:01.335Z,9.60
2018-05-12T21:10:29.253Z,9.60
2018-05-12T21:12:57.092Z,9.50
2018-05-12T21:15:25.370Z,9.50
2018-05-12T21:17:52.969Z,9.50
2018-05-12T21:20:21.406Z,9.40
2018-05-12T21:22:49.371Z,9.20
2018-05-12T21:25:17.288Z,9.30
2018-05-12T21:27:46.452Z,9.00
2018-05-12T21:30:14.424Z,9.00
2018-05-12T21:32:42.486Z,9.00
2018-05-12T21:35:10.668Z,9.00
2018-05-12T21:37:38.267Z,9.10
2018-05-12T21:40:06.630Z,8.90
2018-05-12T21:42:35.063Z,8.90
2018-05-12T21:45:03.982Z,8.60
2018-05-12T21:47:31.924Z,8.50
2018-05-12T21:50:00.067Z,8.60
2018-05-12T21:52:28.147Z,8.40
2018-05-12T21:54:55.755Z,8.50
2018-05-12T21:57:24.435Z,8.60
2018-05-12T21:59:52.417Z,8.60
2018-05-12T22:02:20.232Z,8.60
2018-05-12T22:04:48.171Z,8.50
2018-05-12T22:07:16.792Z,8.30
2018-05-12T22:09:44.560Z,8.20
2018-05-12T22:12:12.161Z,8.30
2018-05-12T22:14:39.998Z,8.00
2018-05-12T22:17:08.604Z,8.00
2018-05-12T22:19:36.931Z,8.00
2018-05-12T22:22:04.530Z,8.10
2018-05-12T22:24:32.161Z,8.10
2018-05-12T22:27:00.114Z,8.10
2018-05-12T22:29:28.154Z,8.10
2018-05-12T22:31:55.904Z,8.10
2018-05-12T22:34:23.625Z,7.80
2018-05-12T22:36:52.328Z,7.80
2018-05-12T22:39:20.007Z,7.80
2018-05-12T22:41:47.606Z,7.80
2018-05-12T22:44:15.414Z,7.80
2018-05-12T22:46:43.368Z,7.70
2018-05-12T22:49:11.338Z,7.70
2018-05-12T22:51:38.989Z,7.60
2018-05-12T22:54:06.557Z,7.60
2018-05-12T22:56:34.184Z,7.60
2018-05-12T22:59:02.017Z,7.60
2018-05-12T23:01:29.678Z,7.50
2018-05-12T23:03:57.416Z,7.50
2018-05-12T23:06:25.182Z,7.20
2018-05-12T23:08:53.137Z,7.20
2018-05-12T23:11:20.877Z,7.40
2018-05-12T23:13:48.866Z,7.20
2018-05-12T23:16:16.741Z,7.10
2018-05-12T23:18:44.531Z,7.10
2018-05-12T23:21:12.101Z,7.10
2018-05-12T23:23:40.662Z,7.10
2018-05-12T23:26:08.435Z,7.10
2018-05-12T23:28:36.004Z,6.90
2018-05-12T23:31:04.443Z,6.80
2018-05-12T23:33:32.399Z,6.80
2018-05-12T23:36:00.276Z,6.60
2018-05-12T23:38:28.033Z,6.60
2018-05-12T23:40:55.667Z,6.70
2018-05-12T23:43:24.197Z,6.80
2018-05-12T23:45:51.815Z,6.80
2018-05-12T23:48:19.577Z,6.80
2018-05-12T23:50:47.264Z,6.80
2018-05-12T23:53:15.052Z,6.70
2018-05-12T23:55:42.777Z,6.70
2018-05-12T23:58:10.412Z,6.70
